Terminal Aerodrome Forecast
Issued by NWS Sterling, VA

Home | Current Version | Previous Version | Text Only | Print | Product List | Glossary On
Versions: 1 2 3 4 5 6 7 8 9 10 11 12 13 14 15 16 17 18 19 20 21
000
FTUS41 KLWX 231700 RRA
TAFIAD
TAF
KIAD 231745Z 2318/2424 32019G31KT P6SM BKN050
     FM232100 32018G28KT P6SM FEW050
     FM240100 32014KT P6SM SKC
     FM240500 32009KT P6SM SKC
     FM242200 33005KT P6SM SCT250=

USA.gov is the U.S. government's official web portal to all federal, state and local government web resources and services.